sensor_id;sensor_type;location;lat;lon;timestamp;P1;durP1;ratioP1;P2;durP2;ratioP2
48552;SDS011;34335;51.566;6.994;2022-07-29T00:00:07;3.75;;;1.38;;
48552;SDS011;34335;51.566;6.994;2022-07-29T00:02:34;2.00;;;0.88;;
48552;SDS011;34335;51.566;6.994;2022-07-29T00:05:00;6.75;;;1.25;;
48552;SDS011;34335;51.566;6.994;2022-07-29T00:07:25;2.95;;;1.20;;
48552;SDS011;34335;51.566;6.994;2022-07-29T00:09:51;4.30;;;1.23;;
48552;SDS011;34335;51.566;6.994;2022-07-29T00:12:16;3.90;;;1.02;;
48552;SDS011;34335;51.566;6.994;2022-07-29T00:14:42;4.68;;;1.10;;
48552;SDS011;34335;51.566;6.994;2022-07-29T00:17:08;4.07;;;0.90;;
48552;SDS011;34335;51.566;6.994;2022-07-29T00:19:33;4.22;;;1.00;;
48552;SDS011;34335;51.566;6.994;2022-07-29T00:21:59;3.13;;;1.50;;
48552;SDS011;34335;51.566;6.994;2022-07-29T00:24:24;5.72;;;1.15;;
48552;SDS011;34335;51.566;6.994;2022-07-29T00:26:50;4.53;;;1.20;;
48552;SDS011;34335;51.566;6.994;2022-07-29T00:29:15;2.47;;;1.03;;
48552;SDS011;34335;51.566;6.994;2022-07-29T00:31:40;5.10;;;1.30;;
48552;SDS011;34335;51.566;6.994;2022-07-29T00:34:06;4.30;;;1.30;;
48552;SDS011;34335;51.566;6.994;2022-07-29T00:36:51;3.50;;;1.67;;
48552;SDS011;34335;51.566;6.994;2022-07-29T00:39:16;3.43;;;1.00;;
48552;SDS011;34335;51.566;6.994;2022-07-29T00:41:41;5.47;;;1.37;;
48552;SDS011;34335;51.566;6.994;2022-07-29T00:44:07;5.33;;;1.00;;
48552;SDS011;34335;51.566;6.994;2022-07-29T00:46:32;3.38;;;0.90;;
48552;SDS011;34335;51.566;6.994;2022-07-29T00:48:57;4.30;;;1.20;;
48552;SDS011;34335;51.566;6.994;2022-07-29T00:51:23;4.90;;;1.10;;
48552;SDS011;34335;51.566;6.994;2022-07-29T00:53:50;4.20;;;1.27;;
48552;SDS011;34335;51.566;6.994;2022-07-29T00:56:16;4.35;;;1.20;;
48552;SDS011;34335;51.566;6.994;2022-07-29T00:58:41;4.43;;;1.10;;
48552;SDS011;34335;51.566;6.994;2022-07-29T01:01:07;9.05;;;1.23;;
48552;SDS011;34335;51.566;6.994;2022-07-29T01:03:32;2.93;;;0.90;;
48552;SDS011;34335;51.566;6.994;2022-07-29T01:05:57;6.78;;;0.93;;
48552;SDS011;34335;51.566;6.994;2022-07-29T01:08:24;7.05;;;1.45;;
48552;SDS011;34335;51.566;6.994;2022-07-29T01:10:49;2.90;;;1.52;;
48552;SDS011;34335;51.566;6.994;2022-07-29T01:13:16;6.47;;;1.30;;
48552;SDS011;34335;51.566;6.994;2022-07-29T01:15:46;1.73;;;0.95;;
48552;SDS011;34335;51.566;6.994;2022-07-29T01:18:22;2.70;;;1.10;;
48552;SDS011;34335;51.566;6.994;2022-07-29T01:29:34;4.80;;;1.10;;
48552;SDS011;34335;51.566;6.994;2022-07-29T01:32:07;2.83;;;1.10;;
48552;SDS011;34335;51.566;6.994;2022-07-29T01:34:45;6.97;;;1.30;;
48552;SDS011;34335;51.566;6.994;2022-07-29T01:37:19;4.18;;;1.20;;
48552;SDS011;34335;51.566;6.994;2022-07-29T01:39:49;3.47;;;1.52;;
48552;SDS011;34335;51.566;6.994;2022-07-29T01:47:46;3.45;;;1.13;;
48552;SDS011;34335;51.566;6.994;2022-07-29T01:50:21;2.42;;;0.95;;
48552;SDS011;34335;51.566;6.994;2022-07-29T01:53:01;3.83;;;1.20;;
48552;SDS011;34335;51.566;6.994;2022-07-29T01:55:31;3.90;;;1.10;;
48552;SDS011;34335;51.566;6.994;2022-07-29T01:58:00;4.00;;;1.40;;
48552;SDS011;34335;51.566;6.994;2022-07-29T02:00:28;2.80;;;1.10;;
48552;SDS011;34335;51.566;6.994;2022-07-29T02:02:56;2.25;;;0.90;;
48552;SDS011;34335;51.566;6.994;2022-07-29T02:05:27;3.05;;;1.17;;
48552;SDS011;34335;51.566;6.994;2022-07-29T02:07:54;3.88;;;1.17;;
48552;SDS011;34335;51.566;6.994;2022-07-29T02:10:24;3.78;;;1.27;;
48552;SDS011;34335;51.566;6.994;2022-07-29T02:12:52;3.60;;;1.10;;
48552;SDS011;34335;51.566;6.994;2022-07-29T02:15:19;3.80;;;1.20;;
48552;SDS011;34335;51.566;6.994;2022-07-29T02:17:52;6.65;;;1.25;;
48552;SDS011;34335;51.566;6.994;2022-07-29T02:20:21;5.07;;;1.23;;
48552;SDS011;34335;51.566;6.994;2022-07-29T02:22:47;5.60;;;1.30;;
48552;SDS011;34335;51.566;6.994;2022-07-29T02:25:15;7.60;;;1.13;;
48552;SDS011;34335;51.566;6.994;2022-07-29T02:27:42;3.42;;;1.15;;
48552;SDS011;34335;51.566;6.994;2022-07-29T02:30:08;2.33;;;0.88;;
48552;SDS011;34335;51.566;6.994;2022-07-29T02:32:35;4.60;;;1.30;;
48552;SDS011;34335;51.566;6.994;2022-07-29T02:35:02;3.22;;;1.38;;
48552;SDS011;34335;51.566;6.994;2022-07-29T02:37:28;5.82;;;1.23;;
48552;SDS011;34335;51.566;6.994;2022-07-29T02:39:55;4.40;;;1.05;;
48552;SDS011;34335;51.566;6.994;2022-07-29T02:42:23;2.65;;;0.95;;
48552;SDS011;34335;51.566;6.994;2022-07-29T02:44:51;3.95;;;1.20;;
48552;SDS011;34335;51.566;6.994;2022-07-29T02:55:29;5.72;;;1.23;;
48552;SDS011;34335;51.566;6.994;2022-07-29T02:58:02;5.18;;;1.75;;
48552;SDS011;34335;51.566;6.994;2022-07-29T03:00:35;2.78;;;1.15;;
48552;SDS011;34335;51.566;6.994;2022-07-29T03:03:03;3.90;;;1.17;;
48552;SDS011;34335;51.566;6.994;2022-07-29T03:05:30;3.50;;;1.08;;
48552;SDS011;34335;51.566;6.994;2022-07-29T03:07:57;3.50;;;1.10;;
48552;SDS011;34335;51.566;6.994;2022-07-29T03:10:25;4.50;;;1.17;;
48552;SDS011;34335;51.566;6.994;2022-07-29T03:12:51;4.20;;;1.58;;
48552;SDS011;34335;51.566;6.994;2022-07-29T03:15:18;2.13;;;1.00;;
48552;SDS011;34335;51.566;6.994;2022-07-29T03:17:44;2.17;;;1.30;;
48552;SDS011;34335;51.566;6.994;2022-07-29T03:20:10;3.67;;;1.05;;
48552;SDS011;34335;51.566;6.994;2022-07-29T03:22:40;3.42;;;1.30;;
48552;SDS011;34335;51.566;6.994;2022-07-29T03:25:09;3.15;;;1.13;;
48552;SDS011;34335;51.566;6.994;2022-07-29T03:27:38;3.30;;;1.13;;
48552;SDS011;34335;51.566;6.994;2022-07-29T03:30:05;4.57;;;1.00;;
48552;SDS011;34335;51.566;6.994;2022-07-29T03:32:31;7.60;;;1.20;;
48552;SDS011;34335;51.566;6.994;2022-07-29T03:34:56;6.80;;;1.90;;
48552;SDS011;34335;51.566;6.994;2022-07-29T03:37:22;6.93;;;1.50;;
48552;SDS011;34335;51.566;6.994;2022-07-29T03:39:47;3.25;;;1.23;;
48552;SDS011;34335;51.566;6.994;2022-07-29T03:42:15;4.03;;;1.48;;
48552;SDS011;34335;51.566;6.994;2022-07-29T03:44:42;6.07;;;1.30;;
48552;SDS011;34335;51.566;6.994;2022-07-29T03:47:10;2.42;;;1.00;;
48552;SDS011;34335;51.566;6.994;2022-07-29T03:49:38;2.47;;;1.13;;
48552;SDS011;34335;51.566;6.994;2022-07-29T03:52:06;3.92;;;1.15;;
48552;SDS011;34335;51.566;6.994;2022-07-29T03:54:32;3.97;;;1.08;;
48552;SDS011;34335;51.566;6.994;2022-07-29T03:56:59;4.05;;;2.28;;
48552;SDS011;34335;51.566;6.994;2022-07-29T03:59:26;3.05;;;1.60;;
48552;SDS011;34335;51.566;6.994;2022-07-29T04:01:52;4.22;;;1.92;;
48552;SDS011;34335;51.566;6.994;2022-07-29T04:04:20;3.55;;;1.63;;
48552;SDS011;34335;51.566;6.994;2022-07-29T04:06:46;8.65;;;1.42;;
48552;SDS011;34335;51.566;6.994;2022-07-29T04:09:11;3.28;;;1.23;;
48552;SDS011;34335;51.566;6.994;2022-07-29T04:11:40;4.35;;;1.27;;
48552;SDS011;34335;51.566;6.994;2022-07-29T04:14:06;1.92;;;1.05;;
48552;SDS011;34335;51.566;6.994;2022-07-29T04:16:32;4.50;;;1.30;;
48552;SDS011;34335;51.566;6.994;2022-07-29T04:18:57;2.15;;;0.95;;
48552;SDS011;34335;51.566;6.994;2022-07-29T04:21:23;3.28;;;1.48;;
48552;SDS011;34335;51.566;6.994;2022-07-29T04:23:48;5.47;;;1.48;;
48552;SDS011;34335;51.566;6.994;2022-07-29T04:26:17;5.75;;;1.85;;
48552;SDS011;34335;51.566;6.994;2022-07-29T04:28:43;8.75;;;1.80;;
48552;SDS011;34335;51.566;6.994;2022-07-29T04:31:10;3.97;;;1.45;;
48552;SDS011;34335;51.566;6.994;2022-07-29T04:33:36;8.48;;;1.92;;
48552;SDS011;34335;51.566;6.994;2022-07-29T04:36:01;4.82;;;1.90;;
48552;SDS011;34335;51.566;6.994;2022-07-29T04:38:26;3.05;;;1.23;;
48552;SDS011;34335;51.566;6.994;2022-07-29T04:40:52;8.00;;;2.57;;
48552;SDS011;34335;51.566;6.994;2022-07-29T04:43:17;5.78;;;1.50;;
48552;SDS011;34335;51.566;6.994;2022-07-29T04:45:42;6.20;;;1.67;;
48552;SDS011;34335;51.566;6.994;2022-07-29T04:48:08;4.22;;;1.23;;
48552;SDS011;34335;51.566;6.994;2022-07-29T04:50:33;7.68;;;1.45;;
48552;SDS011;34335;51.566;6.994;2022-07-29T04:52:59;4.18;;;1.40;;
48552;SDS011;34335;51.566;6.994;2022-07-29T04:55:24;4.28;;;1.70;;
48552;SDS011;34335;51.566;6.994;2022-07-29T04:57:50;4.05;;;1.63;;
48552;SDS011;34335;51.566;6.994;2022-07-29T05:00:16;5.70;;;2.00;;
48552;SDS011;34335;51.566;6.994;2022-07-29T05:02:41;2.78;;;1.40;;
48552;SDS011;34335;51.566;6.994;2022-07-29T05:05:07;3.65;;;1.55;;
48552;SDS011;34335;51.566;6.994;2022-07-29T05:07:33;3.45;;;1.30;;
48552;SDS011;34335;51.566;6.994;2022-07-29T05:09:58;7.65;;;1.70;;
48552;SDS011;34335;51.566;6.994;2022-07-29T05:12:24;7.32;;;1.80;;
48552;SDS011;34335;51.566;6.994;2022-07-29T05:14:50;3.55;;;1.67;;
48552;SDS011;34335;51.566;6.994;2022-07-29T05:17:16;2.50;;;1.42;;
48552;SDS011;34335;51.566;6.994;2022-07-29T05:19:41;2.22;;;1.23;;
48552;SDS011;34335;51.566;6.994;2022-07-29T05:22:06;3.95;;;1.80;;
48552;SDS011;34335;51.566;6.994;2022-07-29T05:24:32;3.63;;;1.27;;
48552;SDS011;34335;51.566;6.994;2022-07-29T05:26:57;3.43;;;1.27;;
48552;SDS011;34335;51.566;6.994;2022-07-29T05:29:22;3.33;;;2.22;;
48552;SDS011;34335;51.566;6.994;2022-07-29T05:31:53;4.97;;;1.50;;
48552;SDS011;34335;51.566;6.994;2022-07-29T05:34:18;3.13;;;1.30;;
48552;SDS011;34335;51.566;6.994;2022-07-29T05:36:44;8.20;;;1.88;;
48552;SDS011;34335;51.566;6.994;2022-07-29T05:39:10;14.82;;;3.45;;
48552;SDS011;34335;51.566;6.994;2022-07-29T05:41:36;42.53;;;6.40;;
48552;SDS011;34335;51.566;6.994;2022-07-29T05:44:01;54.80;;;6.20;;
48552;SDS011;34335;51.566;6.994;2022-07-29T05:46:27;13.30;;;2.28;;
48552;SDS011;34335;51.566;6.994;2022-07-29T05:48:52;14.48;;;2.13;;
48552;SDS011;34335;51.566;6.994;2022-07-29T05:51:18;5.95;;;1.73;;
48552;SDS011;34335;51.566;6.994;2022-07-29T05:53:43;4.83;;;1.60;;
48552;SDS011;34335;51.566;6.994;2022-07-29T05:56:09;6.32;;;1.65;;
48552;SDS011;34335;51.566;6.994;2022-07-29T05:58:35;5.43;;;1.48;;
48552;SDS011;34335;51.566;6.994;2022-07-29T06:01:01;4.32;;;1.42;;
48552;SDS011;34335;51.566;6.994;2022-07-29T06:03:26;9.57;;;1.65;;
48552;SDS011;34335;51.566;6.994;2022-07-29T06:05:52;8.20;;;2.05;;
48552;SDS011;34335;51.566;6.994;2022-07-29T06:08:18;17.17;;;3.07;;
48552;SDS011;34335;51.566;6.994;2022-07-29T06:10:43;11.98;;;2.38;;
48552;SDS011;34335;51.566;6.994;2022-07-29T06:13:09;8.02;;;2.10;;
48552;SDS011;34335;51.566;6.994;2022-07-29T06:15:34;11.35;;;1.65;;
48552;SDS011;34335;51.566;6.994;2022-07-29T06:18:00;6.63;;;1.83;;
48552;SDS011;34335;51.566;6.994;2022-07-29T06:20:25;4.10;;;1.58;;
48552;SDS011;34335;51.566;6.994;2022-07-29T06:22:51;4.90;;;1.92;;
48552;SDS011;34335;51.566;6.994;2022-07-29T06:25:17;7.83;;;2.10;;
48552;SDS011;34335;51.566;6.994;2022-07-29T06:27:42;4.28;;;1.92;;
48552;SDS011;34335;51.566;6.994;2022-07-29T06:30:07;5.13;;;1.77;;
48552;SDS011;34335;51.566;6.994;2022-07-29T06:32:33;3.80;;;1.90;;
48552;SDS011;34335;51.566;6.994;2022-07-29T06:35:00;6.10;;;2.03;;
48552;SDS011;34335;51.566;6.994;2022-07-29T06:37:25;3.70;;;1.52;;
48552;SDS011;34335;51.566;6.994;2022-07-29T06:39:51;3.50;;;1.63;;
48552;SDS011;34335;51.566;6.994;2022-07-29T06:42:36;5.63;;;2.10;;
48552;SDS011;34335;51.566;6.994;2022-07-29T06:45:01;4.50;;;1.83;;
48552;SDS011;34335;51.566;6.994;2022-07-29T06:47:26;5.60;;;2.50;;
48552;SDS011;34335;51.566;6.994;2022-07-29T06:49:52;5.10;;;2.57;;
48552;SDS011;34335;51.566;6.994;2022-07-29T06:52:17;9.68;;;2.60;;
48552;SDS011;34335;51.566;6.994;2022-07-29T06:54:43;5.03;;;2.58;;
48552;SDS011;34335;51.566;6.994;2022-07-29T06:57:13;4.72;;;2.10;;
48552;SDS011;34335;51.566;6.994;2022-07-29T06:59:38;6.47;;;2.33;;
48552;SDS011;34335;51.566;6.994;2022-07-29T07:02:03;6.45;;;2.20;;
48552;SDS011;34335;51.566;6.994;2022-07-29T07:04:29;4.18;;;2.20;;
48552;SDS011;34335;51.566;6.994;2022-07-29T07:06:54;8.33;;;2.57;;
48552;SDS011;34335;51.566;6.994;2022-07-29T07:09:20;3.45;;;1.95;;
48552;SDS011;34335;51.566;6.994;2022-07-29T07:11:45;7.40;;;2.67;;
48552;SDS011;34335;51.566;6.994;2022-07-29T07:14:11;4.45;;;2.00;;
48552;SDS011;34335;51.566;6.994;2022-07-29T07:16:36;5.70;;;2.13;;
48552;SDS011;34335;51.566;6.994;2022-07-29T07:19:01;7.28;;;2.05;;
48552;SDS011;34335;51.566;6.994;2022-07-29T07:21:27;5.25;;;1.98;;
48552;SDS011;34335;51.566;6.994;2022-07-29T07:23:52;4.00;;;2.08;;
48552;SDS011;34335;51.566;6.994;2022-07-29T07:26:17;8.47;;;1.67;;
48552;SDS011;34335;51.566;6.994;2022-07-29T07:28:43;6.10;;;2.15;;
48552;SDS011;34335;51.566;6.994;2022-07-29T07:31:08;4.60;;;1.95;;
48552;SDS011;34335;51.566;6.994;2022-07-29T07:33:34;5.47;;;1.55;;
48552;SDS011;34335;51.566;6.994;2022-07-29T07:35:59;6.00;;;2.00;;
48552;SDS011;34335;51.566;6.994;2022-07-29T07:38:24;9.70;;;2.25;;
48552;SDS011;34335;51.566;6.994;2022-07-29T07:40:50;6.67;;;2.20;;
48552;SDS011;34335;51.566;6.994;2022-07-29T07:43:15;8.63;;;2.37;;
48552;SDS011;34335;51.566;6.994;2022-07-29T07:45:40;4.70;;;1.98;;
48552;SDS011;34335;51.566;6.994;2022-07-29T07:48:06;5.80;;;1.92;;
48552;SDS011;34335;51.566;6.994;2022-07-29T07:50:31;7.63;;;2.10;;
48552;SDS011;34335;51.566;6.994;2022-07-29T07:52:57;15.00;;;3.65;;
48552;SDS011;34335;51.566;6.994;2022-07-29T07:55:23;5.55;;;2.28;;
48552;SDS011;34335;51.566;6.994;2022-07-29T07:57:48;5.43;;;2.22;;
48552;SDS011;34335;51.566;6.994;2022-07-29T08:00:14;4.78;;;1.98;;
48552;SDS011;34335;51.566;6.994;2022-07-29T08:02:40;7.28;;;2.70;;
48552;SDS011;34335;51.566;6.994;2022-07-29T08:05:07;3.58;;;1.77;;
48552;SDS011;34335;51.566;6.994;2022-07-29T08:07:33;7.15;;;2.38;;
48552;SDS011;34335;51.566;6.994;2022-07-29T08:09:58;8.02;;;2.22;;
48552;SDS011;34335;51.566;6.994;2022-07-29T08:12:24;5.65;;;2.28;;
48552;SDS011;34335;51.566;6.994;2022-07-29T08:14:49;5.83;;;2.10;;
48552;SDS011;34335;51.566;6.994;2022-07-29T08:17:14;5.40;;;2.30;;
48552;SDS011;34335;51.566;6.994;2022-07-29T08:19:39;6.83;;;1.90;;
48552;SDS011;34335;51.566;6.994;2022-07-29T08:22:05;4.40;;;2.58;;
48552;SDS011;34335;51.566;6.994;2022-07-29T08:24:30;3.72;;;1.85;;
48552;SDS011;34335;51.566;6.994;2022-07-29T08:27:08;3.30;;;1.95;;
48552;SDS011;34335;51.566;6.994;2022-07-29T08:29:34;9.05;;;2.13;;
48552;SDS011;34335;51.566;6.994;2022-07-29T08:31:59;4.78;;;1.90;;
48552;SDS011;34335;51.566;6.994;2022-07-29T08:34:25;6.25;;;2.33;;
48552;SDS011;34335;51.566;6.994;2022-07-29T08:36:50;3.28;;;2.10;;
48552;SDS011;34335;51.566;6.994;2022-07-29T08:39:16;7.72;;;2.10;;
48552;SDS011;34335;51.566;6.994;2022-07-29T08:41:41;7.60;;;2.53;;
48552;SDS011;34335;51.566;6.994;2022-07-29T08:44:07;5.03;;;1.75;;
48552;SDS011;34335;51.566;6.994;2022-07-29T08:46:34;6.78;;;2.28;;
48552;SDS011;34335;51.566;6.994;2022-07-29T08:49:02;14.88;;;3.15;;
48552;SDS011;34335;51.566;6.994;2022-07-29T08:51:27;8.00;;;2.42;;
48552;SDS011;34335;51.566;6.994;2022-07-29T08:53:54;3.97;;;1.98;;
48552;SDS011;34335;51.566;6.994;2022-07-29T08:56:20;7.63;;;2.38;;
48552;SDS011;34335;51.566;6.994;2022-07-29T08:58:46;7.38;;;2.58;;
48552;SDS011;34335;51.566;6.994;2022-07-29T09:01:13;6.35;;;2.38;;
48552;SDS011;34335;51.566;6.994;2022-07-29T09:03:42;5.07;;;2.30;;
48552;SDS011;34335;51.566;6.994;2022-07-29T09:06:09;7.28;;;2.42;;
48552;SDS011;34335;51.566;6.994;2022-07-29T09:08:39;6.00;;;2.58;;
48552;SDS011;34335;51.566;6.994;2022-07-29T09:11:04;6.38;;;3.45;;
48552;SDS011;34335;51.566;6.994;2022-07-29T09:13:31;8.20;;;2.88;;
48552;SDS011;34335;51.566;6.994;2022-07-29T09:15:57;7.88;;;2.78;;
48552;SDS011;34335;51.566;6.994;2022-07-29T09:18:41;8.80;;;2.63;;
48552;SDS011;34335;51.566;6.994;2022-07-29T09:21:08;6.38;;;2.55;;
48552;SDS011;34335;51.566;6.994;2022-07-29T09:26:32;8.52;;;2.53;;
48552;SDS011;34335;51.566;6.994;2022-07-29T09:28:59;5.28;;;2.75;;
48552;SDS011;34335;51.566;6.994;2022-07-29T09:31:35;6.97;;;2.50;;
48552;SDS011;34335;51.566;6.994;2022-07-29T09:34:02;6.90;;;2.60;;
48552;SDS011;34335;51.566;6.994;2022-07-29T09:36:28;6.03;;;2.42;;
48552;SDS011;34335;51.566;6.994;2022-07-29T09:38:58;9.48;;;2.72;;
48552;SDS011;34335;51.566;6.994;2022-07-29T09:41:27;10.18;;;2.90;;
48552;SDS011;34335;51.566;6.994;2022-07-29T09:43:56;8.50;;;3.22;;
48552;SDS011;34335;51.566;6.994;2022-07-29T09:46:22;5.90;;;2.78;;
48552;SDS011;34335;51.566;6.994;2022-07-29T09:51:36;8.60;;;3.78;;
48552;SDS011;34335;51.566;6.994;2022-07-29T09:54:02;7.35;;;2.97;;
48552;SDS011;34335;51.566;6.994;2022-07-29T09:59:12;8.85;;;3.20;;
48552;SDS011;34335;51.566;6.994;2022-07-29T10:01:38;6.53;;;3.10;;
48552;SDS011;34335;51.566;6.994;2022-07-29T10:04:03;8.13;;;3.35;;
48552;SDS011;34335;51.566;6.994;2022-07-29T10:06:29;6.03;;;3.35;;
48552;SDS011;34335;51.566;6.994;2022-07-29T10:08:54;7.22;;;3.33;;
48552;SDS011;34335;51.566;6.994;2022-07-29T10:11:19;6.32;;;3.20;;
48552;SDS011;34335;51.566;6.994;2022-07-29T10:13:46;8.60;;;3.42;;
48552;SDS011;34335;51.566;6.994;2022-07-29T10:16:13;6.68;;;3.10;;
48552;SDS011;34335;51.566;6.994;2022-07-29T10:18:40;6.20;;;2.95;;
48552;SDS011;34335;51.566;6.994;2022-07-29T10:21:08;8.73;;;3.42;;
48552;SDS011;34335;51.566;6.994;2022-07-29T10:23:34;6.80;;;3.03;;
48552;SDS011;34335;51.566;6.994;2022-07-29T10:26:01;8.02;;;4.00;;
48552;SDS011;34335;51.566;6.994;2022-07-29T10:28:28;6.03;;;3.40;;
48552;SDS011;34335;51.566;6.994;2022-07-29T10:30:58;6.07;;;2.92;;
48552;SDS011;34335;51.566;6.994;2022-07-29T10:37:20;7.53;;;3.22;;
48552;SDS011;34335;51.566;6.994;2022-07-29T10:39:26;4.85;;;3.00;;
48552;SDS011;34335;51.566;6.994;2022-07-29T10:42:13;6.45;;;2.85;;
48552;SDS011;34335;51.566;6.994;2022-07-29T10:44:43;4.28;;;2.90;;
48552;SDS011;34335;51.566;6.994;2022-07-29T10:47:25;6.05;;;2.72;;
48552;SDS011;34335;51.566;6.994;2022-07-29T10:49:58;7.43;;;3.03;;
48552;SDS011;34335;51.566;6.994;2022-07-29T10:52:24;6.00;;;3.78;;
48552;SDS011;34335;51.566;6.994;2022-07-29T10:54:52;5.00;;;2.83;;
48552;SDS011;34335;51.566;6.994;2022-07-29T10:57:25;6.90;;;3.55;;
48552;SDS011;34335;51.566;6.994;2022-07-29T11:07:24;7.53;;;3.42;;
48552;SDS011;34335;51.566;6.994;2022-07-29T11:15:06;6.30;;;2.63;;
48552;SDS011;34335;51.566;6.994;2022-07-29T11:20:32;9.27;;;3.88;;
48552;SDS011;34335;51.566;6.994;2022-07-29T11:22:58;7.72;;;3.15;;
48552;SDS011;34335;51.566;6.994;2022-07-29T11:25:24;7.57;;;3.55;;
48552;SDS011;34335;51.566;6.994;2022-07-29T11:27:51;8.63;;;4.35;;
48552;SDS011;34335;51.566;6.994;2022-07-29T11:30:18;9.48;;;3.97;;
48552;SDS011;34335;51.566;6.994;2022-07-29T11:32:44;6.70;;;2.75;;
48552;SDS011;34335;51.566;6.994;2022-07-29T11:35:21;5.50;;;2.90;;
48552;SDS011;34335;51.566;6.994;2022-07-29T11:41:18;4.82;;;2.50;;
48552;SDS011;34335;51.566;6.994;2022-07-29T11:43:54;6.53;;;2.55;;
48552;SDS011;34335;51.566;6.994;2022-07-29T11:49:13;6.78;;;2.60;;
48552;SDS011;34335;51.566;6.994;2022-07-29T11:51:48;9.05;;;2.88;;
48552;SDS011;34335;51.566;6.994;2022-07-29T11:54:15;6.57;;;1.95;;
48552;SDS011;34335;51.566;6.994;2022-07-29T11:56:48;5.85;;;2.78;;
48552;SDS011;34335;51.566;6.994;2022-07-29T11:59:15;6.55;;;2.33;;
48552;SDS011;34335;51.566;6.994;2022-07-29T12:01:51;4.88;;;2.17;;
48552;SDS011;34335;51.566;6.994;2022-07-29T12:04:18;6.10;;;2.17;;
48552;SDS011;34335;51.566;6.994;2022-07-29T12:06:43;9.07;;;2.47;;
48552;SDS011;34335;51.566;6.994;2022-07-29T12:09:14;10.45;;;2.25;;
48552;SDS011;34335;51.566;6.994;2022-07-29T12:11:39;6.38;;;2.25;;
48552;SDS011;34335;51.566;6.994;2022-07-29T12:14:05;5.57;;;2.70;;
48552;SDS011;34335;51.566;6.994;2022-07-29T12:16:36;4.30;;;1.60;;
48552;SDS011;34335;51.566;6.994;2022-07-29T12:19:02;4.28;;;2.10;;
48552;SDS011;34335;51.566;6.994;2022-07-29T12:21:29;3.83;;;1.52;;
48552;SDS011;34335;51.566;6.994;2022-07-29T12:24:07;5.38;;;2.00;;
48552;SDS011;34335;51.566;6.994;2022-07-29T12:26:33;4.45;;;1.77;;
48552;SDS011;34335;51.566;6.994;2022-07-29T12:28:58;3.77;;;2.10;;
48552;SDS011;34335;51.566;6.994;2022-07-29T12:31:23;5.90;;;2.10;;
48552;SDS011;34335;51.566;6.994;2022-07-29T12:33:52;3.33;;;1.70;;
48552;SDS011;34335;51.566;6.994;2022-07-29T12:36:18;6.18;;;1.85;;
48552;SDS011;34335;51.566;6.994;2022-07-29T12:38:44;6.93;;;2.45;;
48552;SDS011;34335;51.566;6.994;2022-07-29T12:41:09;3.65;;;2.08;;
48552;SDS011;34335;51.566;6.994;2022-07-29T12:43:35;4.80;;;1.70;;
48552;SDS011;34335;51.566;6.994;2022-07-29T12:46:11;6.40;;;1.67;;
48552;SDS011;34335;51.566;6.994;2022-07-29T12:48:41;5.28;;;2.25;;
48552;SDS011;34335;51.566;6.994;2022-07-29T12:51:08;5.45;;;2.05;;
48552;SDS011;34335;51.566;6.994;2022-07-29T12:53:35;7.43;;;1.85;;
48552;SDS011;34335;51.566;6.994;2022-07-29T12:56:01;5.43;;;1.67;;
48552;SDS011;34335;51.566;6.994;2022-07-29T12:58:28;3.88;;;2.08;;
48552;SDS011;34335;51.566;6.994;2022-07-29T13:01:06;6.55;;;2.25;;
48552;SDS011;34335;51.566;6.994;2022-07-29T13:03:52;4.80;;;2.13;;
48552;SDS011;34335;51.566;6.994;2022-07-29T13:06:28;7.45;;;1.95;;
48552;SDS011;34335;51.566;6.994;2022-07-29T13:08:58;5.25;;;1.92;;
48552;SDS011;34335;51.566;6.994;2022-07-29T13:11:36;8.82;;;2.85;;
48552;SDS011;34335;51.566;6.994;2022-07-29T13:14:06;4.80;;;2.05;;
48552;SDS011;34335;51.566;6.994;2022-07-29T13:16:33;8.57;;;2.00;;
48552;SDS011;34335;51.566;6.994;2022-07-29T13:19:06;5.22;;;2.33;;
48552;SDS011;34335;51.566;6.994;2022-07-29T13:21:37;4.93;;;2.03;;
48552;SDS011;34335;51.566;6.994;2022-07-29T13:24:03;5.53;;;2.20;;
48552;SDS011;34335;51.566;6.994;2022-07-29T13:26:30;8.35;;;3.72;;
48552;SDS011;34335;51.566;6.994;2022-07-29T13:28:56;4.68;;;1.98;;
48552;SDS011;34335;51.566;6.994;2022-07-29T13:31:21;6.10;;;2.25;;
48552;SDS011;34335;51.566;6.994;2022-07-29T13:33:47;8.03;;;2.23;;
48552;SDS011;34335;51.566;6.994;2022-07-29T13:36:12;6.15;;;1.70;;
48552;SDS011;34335;51.566;6.994;2022-07-29T13:38:38;6.05;;;2.40;;
48552;SDS011;34335;51.566;6.994;2022-07-29T13:41:03;5.85;;;2.28;;
48552;SDS011;34335;51.566;6.994;2022-07-29T13:43:28;5.72;;;2.53;;
48552;SDS011;34335;51.566;6.994;2022-07-29T13:45:54;7.57;;;2.97;;
48552;SDS011;34335;51.566;6.994;2022-07-29T13:48:20;6.18;;;2.42;;
48552;SDS011;34335;51.566;6.994;2022-07-29T13:50:45;9.50;;;2.80;;
48552;SDS011;34335;51.566;6.994;2022-07-29T13:53:11;5.47;;;2.78;;
48552;SDS011;34335;51.566;6.994;2022-07-29T13:55:37;6.60;;;3.50;;
48552;SDS011;34335;51.566;6.994;2022-07-29T13:58:02;7.03;;;2.70;;
48552;SDS011;34335;51.566;6.994;2022-07-29T14:00:28;7.28;;;2.95;;
48552;SDS011;34335;51.566;6.994;2022-07-29T14:02:54;4.82;;;3.17;;
48552;SDS011;34335;51.566;6.994;2022-07-29T14:05:19;7.05;;;2.95;;
48552;SDS011;34335;51.566;6.994;2022-07-29T14:07:44;7.03;;;3.53;;
48552;SDS011;34335;51.566;6.994;2022-07-29T14:10:10;5.57;;;2.90;;
48552;SDS011;34335;51.566;6.994;2022-07-29T14:12:35;5.30;;;2.72;;
48552;SDS011;34335;51.566;6.994;2022-07-29T14:15:00;6.78;;;3.15;;
48552;SDS011;34335;51.566;6.994;2022-07-29T14:17:26;8.07;;;2.78;;
48552;SDS011;34335;51.566;6.994;2022-07-29T14:19:52;5.40;;;3.40;;
48552;SDS011;34335;51.566;6.994;2022-07-29T14:22:17;6.90;;;2.95;;
48552;SDS011;34335;51.566;6.994;2022-07-29T14:24:43;6.53;;;2.97;;
48552;SDS011;34335;51.566;6.994;2022-07-29T14:27:09;7.13;;;3.42;;
48552;SDS011;34335;51.566;6.994;2022-07-29T14:29:35;5.13;;;2.43;;
48552;SDS011;34335;51.566;6.994;2022-07-29T14:32:01;10.15;;;3.30;;
48552;SDS011;34335;51.566;6.994;2022-07-29T14:34:27;7.03;;;3.35;;
48552;SDS011;34335;51.566;6.994;2022-07-29T14:36:52;8.03;;;3.97;;
48552;SDS011;34335;51.566;6.994;2022-07-29T14:39:20;5.60;;;3.03;;
48552;SDS011;34335;51.566;6.994;2022-07-29T14:41:47;5.47;;;3.08;;
48552;SDS011;34335;51.566;6.994;2022-07-29T14:44:12;6.03;;;3.47;;
48552;SDS011;34335;51.566;6.994;2022-07-29T14:46:37;6.22;;;3.72;;
48552;SDS011;34335;51.566;6.994;2022-07-29T14:49:03;6.03;;;3.17;;
48552;SDS011;34335;51.566;6.994;2022-07-29T14:51:28;5.73;;;3.27;;
48552;SDS011;34335;51.566;6.994;2022-07-29T14:53:53;8.60;;;3.20;;
48552;SDS011;34335;51.566;6.994;2022-07-29T14:56:18;7.50;;;3.20;;
48552;SDS011;34335;51.566;6.994;2022-07-29T14:58:44;6.00;;;3.13;;
48552;SDS011;34335;51.566;6.994;2022-07-29T15:01:09;10.10;;;5.80;;
48552;SDS011;34335;51.566;6.994;2022-07-29T15:03:34;4.50;;;2.73;;
48552;SDS011;34335;51.566;6.994;2022-07-29T15:06:00;6.25;;;2.80;;
48552;SDS011;34335;51.566;6.994;2022-07-29T15:08:25;5.15;;;2.80;;
48552;SDS011;34335;51.566;6.994;2022-07-29T15:10:53;10.27;;;3.17;;
48552;SDS011;34335;51.566;6.994;2022-07-29T15:13:18;6.13;;;2.70;;
48552;SDS011;34335;51.566;6.994;2022-07-29T15:15:43;7.03;;;2.78;;
48552;SDS011;34335;51.566;6.994;2022-07-29T15:18:10;6.80;;;2.55;;
48552;SDS011;34335;51.566;6.994;2022-07-29T15:20:35;3.70;;;2.40;;
48552;SDS011;34335;51.566;6.994;2022-07-29T15:23:00;6.80;;;2.60;;
48552;SDS011;34335;51.566;6.994;2022-07-29T15:25:26;5.03;;;2.90;;
48552;SDS011;34335;51.566;6.994;2022-07-29T15:27:51;5.03;;;2.90;;
48552;SDS011;34335;51.566;6.994;2022-07-29T15:30:17;4.20;;;2.75;;
48552;SDS011;34335;51.566;6.994;2022-07-29T15:32:45;4.40;;;2.38;;
48552;SDS011;34335;51.566;6.994;2022-07-29T15:35:10;6.35;;;2.60;;
48552;SDS011;34335;51.566;6.994;2022-07-29T15:37:39;5.82;;;2.30;;
48552;SDS011;34335;51.566;6.994;2022-07-29T15:40:05;4.40;;;2.55;;
48552;SDS011;34335;51.566;6.994;2022-07-29T15:42:31;9.40;;;5.43;;